Time;durP1;ratioP1;P1;durP2;ratioP2;P2;SDS_P1;SDS_P2;PMS_P1;PMS_P2;Temp;Humidity;BMP_temperature;BMP_pressure;BME280_temperature;BME280_humidity;BME280_pressure;Samples;Min_cycle;Max_cycle;Signal;HPM_P1;HPM_P2
2022/04/02 00:02:15;;;;;;;12.02;7.53;;;;;;;3.73;96.52;99077.16;4994072;28;20114;-63
2022/04/02 00:04:41;;;;;;;9.75;7.13;;;;;;;3.64;96.00;99085.22;4994088;28;20105;-63
2022/04/02 00:07:06;;;;;;;11.95;6.65;;;;;;;3.78;96.04;99079.69;4993820;28;20025;-63
2022/04/02 00:09:32;;;;;;;9.43;7.15;;;;;;;3.88;96.14;99078.63;4994129;28;20034;-63
2022/04/02 00:11:57;;;;;;;13.93;7.07;;;;;;;3.77;96.08;99076.19;4993469;28;20085;-63
2022/04/02 00:14:22;;;;;;;10.70;6.18;;;;;;;3.89;96.63;99072.44;4993835;28;20057;-63
2022/04/02 00:16:48;;;;;;;9.60;6.30;;;;;;;4.01;97.11;99070.44;4993592;28;20109;-63
2022/04/02 00:19:13;;;;;;;12.30;7.00;;;;;;;4.08;96.94;99071.16;4994013;28;20045;-64
2022/04/02 00:21:39;;;;;;;12.38;8.35;;;;;;;3.98;96.38;99062.63;4993749;28;20033;-63
2022/04/02 00:24:04;;;;;;;10.38;6.22;;;;;;;3.85;95.57;99076.06;4993583;28;20022;-63
2022/04/02 00:26:30;;;;;;;10.10;6.95;;;;;;;3.80;95.14;99080.53;4993189;28;20481;-63
2022/04/02 00:28:55;;;;;;;12.75;7.10;;;;;;;3.80;96.07;99080.53;4993788;28;20096;-63
2022/04/02 00:31:21;;;;;;;8.82;6.70;;;;;;;3.88;96.34;99078.63;4993055;28;20034;-63
2022/04/02 00:33:49;;;;;;;8.63;5.63;;;;;;;3.79;95.96;99084.03;4992968;28;20034;-63
2022/04/02 00:36:18;;;;;;;9.95;7.00;;;;;;;3.79;96.24;99084.03;4993460;28;20026;-63
2022/04/02 00:38:43;;;;;;;11.55;7.28;;;;;;;3.71;96.08;99075.44;4993565;28;20478;-64
2022/04/02 00:41:09;;;;;;;9.18;6.70;;;;;;;3.75;96.37;99082.41;4993482;28;20113;-63
2022/04/02 00:43:34;;;;;;;12.15;6.30;;;;;;;3.71;95.71;99083.34;4993159;28;20390;-63
2022/04/02 00:46:04;;;;;;;11.98;8.02;;;;;;;3.64;97.17;99073.88;4992980;28;20062;-63
2022/04/02 00:48:30;;;;;;;9.93;6.88;;;;;;;3.65;97.77;99086.09;4993413;28;20538;-63
2022/04/02 00:50:58;;;;;;;10.93;6.70;;;;;;;3.71;97.32;99075.44;4993175;28;20033;-63
2022/04/02 00:53:28;;;;;;;10.38;6.22;;;;;;;3.65;97.46;99060.69;4993149;28;20528;-63
2022/04/02 00:55:54;;;;;;;10.07;6.90;;;;;;;3.70;97.70;99074.59;4993134;28;20018;-63
2022/04/02 00:58:20;;;;;;;10.25;6.50;;;;;;;3.65;97.90;99086.09;4993178;28;20401;-63
2022/04/02 01:00:46;;;;;;;10.60;6.82;;;;;;;3.50;97.74;99082.03;4993038;28;20037;-63
2022/04/02 01:03:13;;;;;;;18.30;7.25;;;;;;;3.51;98.06;99080.25;4992945;28;20029;-63
2022/04/02 01:05:39;;;;;;;12.02;7.80;;;;;;;3.50;98.19;99079.38;4993018;28;20081;-63
2022/04/02 01:08:08;;;;;;;11.57;7.30;;;;;;;3.65;98.61;99075.59;4992545;28;20046;-63
2022/04/02 01:10:36;;;;;;;11.57;8.60;;;;;;;3.69;98.48;99082.53;4992365;28;20030;-63
2022/04/02 01:13:03;;;;;;;13.63;7.15;;;;;;;3.70;99.00;99084.25;4992470;28;20031;-63
2022/04/02 01:15:28;;;;;;;11.02;7.57;;;;;;;3.66;99.10;99072.03;4992870;28;20065;-63
2022/04/02 01:17:54;;;;;;;11.10;7.03;;;;;;;3.60;98.96;99085.31;4992806;28;20034;-63
2022/04/02 01:20:22;;;;;;;10.43;7.50;;;;;;;3.61;99.10;99087.91;4992755;28;20030;-63
2022/04/02 01:22:48;;;;;;;10.18;7.63;;;;;;;3.60;98.96;99080.06;4992538;28;20041;-63
2022/04/02 01:25:13;;;;;;;9.77;7.03;;;;;;;3.52;98.94;99087.25;4991585;28;20022;-63
2022/04/02 01:27:39;;;;;;;11.60;6.78;;;;;;;3.50;98.87;99087.28;4991246;28;20074;-63
2022/04/02 01:30:05;;;;;;;11.82;8.07;;;;;;;3.60;99.42;99087.94;4992311;28;20061;-63
2022/04/02 01:32:31;;;;;;;10.02;8.25;;;;;;;3.59;99.37;99097.59;4992720;28;20026;-64
2022/04/02 01:34:57;;;;;;;12.00;7.60;;;;;;;3.57;100.00;99095.91;4992422;28;20027;-64
2022/04/02 01:37:22;;;;;;;12.98;8.40;;;;;;;3.57;100.00;99090.66;4992436;28;20026;-64
2022/04/02 01:39:48;;;;;;;11.10;7.05;;;;;;;3.52;100.00;99095.13;4992184;28;20041;-63
2022/04/02 01:42:14;;;;;;;16.35;13.75;;;;;;;3.53;100.00;99094.22;4992376;28;20023;-64
2022/04/02 01:44:41;;;;;;;14.30;11.57;;;;;;;3.47;100.00;99094.34;4992504;28;20366;-64
2022/04/02 01:47:07;;;;;;;13.90;8.80;;;;;;;3.63;100.00;99093.16;4992734;28;20019;-64
2022/04/02 01:49:32;;;;;;;47.10;34.53;;;;;;;3.68;100.00;99092.16;4991793;28;20386;-64
2022/04/02 01:51:58;;;;;;;15.18;7.72;;;;;;;3.49;100.00;99095.19;4992311;28;20058;-64
2022/04/02 01:54:23;;;;;;;25.40;17.25;;;;;;;3.47;100.00;99083.84;4974846;28;20450;-64
2022/04/02 01:56:48;;;;;;;11.43;7.70;;;;;;;3.46;100.00;99096.09;4992280;28;20028;-64
2022/04/02 01:59:14;;;;;;;11.15;8.05;;;;;;;3.51;100.00;99101.28;4991962;28;20104;-64
2022/04/02 02:01:40;;;;;;;11.15;7.30;;;;;;;3.54;100.00;99095.97;4991794;28;20018;-64
2022/04/02 02:04:06;;;;;;;13.30;7.30;;;;;;;3.61;100.00;99105.44;4992304;28;20081;-64
2022/04/02 02:06:33;;;;;;;15.68;10.63;;;;;;;3.53;100.00;99099.47;4992498;28;20110;-63
2022/04/02 02:08:59;;;;;;;13.88;9.10;;;;;;;3.69;100.00;99106.19;4991860;28;20034;-64
2022/04/02 02:11:25;;;;;;;21.52;14.85;;;;;;;3.53;100.00;99104.72;4992032;28;20073;-64
2022/04/02 02:13:51;;;;;;;14.55;9.45;;;;;;;3.54;100.00;99103.84;4992286;28;20034;-63
2022/04/02 02:16:18;;;;;;;13.63;9.85;;;;;;;3.55;100.00;99105.59;4992305;28;20026;-63
2022/04/02 02:18:43;;;;;;;11.35;8.23;;;;;;;3.55;100.00;99105.59;4991809;28;20061;-63
2022/04/02 02:21:08;;;;;;;17.50;11.35;;;;;;;3.58;100.00;99106.38;4992065;28;20050;-63
2022/04/02 02:23:34;;;;;;;20.20;16.17;;;;;;;3.59;100.00;99110.75;4974708;28;20022;-64
2022/04/02 02:25:59;;;;;;;11.73;6.97;;;;;;;3.61;100.00;99106.31;4991429;28;20050;-64
2022/04/02 02:28:24;;;;;;;13.35;9.32;;;;;;;3.55;100.00;99105.59;4991464;28;20031;-64
2022/04/02 02:30:50;;;;;;;14.70;10.57;;;;;;;3.55;100.00;99110.84;4991937;28;20032;-64
2022/04/02 02:35:59;;;;;;;15.40;10.80;;;;;;;3.43;100.00;99111.06;4993020;28;20116;-64
2022/04/02 02:38:25;;;;;;;13.77;9.10;;;;;;;3.63;100.00;99111.56;4994311;28;20109;-64
2022/04/02 02:40:52;;;;;;;10.73;7.57;;;;;;;3.52;100.00;99113.53;4995142;28;20030;-64
2022/04/02 02:43:19;;;;;;;10.35;6.47;;;;;;;3.45;100.00;99119.78;4995667;28;20506;-64
2022/04/02 02:45:45;;;;;;;10.35;6.30;;;;;;;3.47;100.00;99110.13;4995386;28;20092;-64
2022/04/02 02:48:11;;;;;;;12.40;7.60;;;;;;;3.47;100.00;99118.00;4995577;28;20058;-64
2022/04/02 02:50:37;;;;;;;11.98;7.53;;;;;;;3.51;100.00;99119.69;4995085;28;20112;-64
2022/04/02 02:53:02;;;;;;;11.93;6.25;;;;;;;3.41;100.00;99118.13;4995363;28;20410;-64
2022/04/02 02:55:28;;;;;;;11.65;7.45;;;;;;;3.51;100.00;99122.31;4995160;28;20066;-64
2022/04/02 02:57:54;;;;;;;13.00;7.43;;;;;;;3.53;100.00;99113.50;4995251;28;20030;-64
2022/04/02 03:00:19;;;;;;;11.55;6.85;;;;;;;3.56;100.00;99123.06;4995053;28;20054;-64
2022/04/02 03:02:45;;;;;;;11.27;6.93;;;;;;;3.59;100.00;99112.53;4995377;28;20061;-64
2022/04/02 03:05:15;;;;;;;10.07;6.63;;;;;;;3.51;100.00;99110.03;4994954;28;20026;-64
2022/04/02 03:07:48;;;;;;;9.80;6.65;;;;;;;3.47;100.00;99124.13;4995065;28;20034;-64
2022/04/02 03:10:18;;;;;;;9.05;6.75;;;;;;;3.55;100.00;99124.84;4994952;28;20065;-64
2022/04/02 03:12:48;;;;;;;11.73;7.20;;;;;;;3.56;100.00;99118.69;4994882;28;20030;-64
2022/04/02 03:15:15;;;;;;;10.45;6.70;;;;;;;3.49;100.00;99126.75;4994668;28;20026;-64
2022/04/02 03:17:43;;;;;;;9.30;6.15;;;;;;;3.52;100.00;99129.31;4993646;28;20058;-64
2022/04/02 03:20:11;;;;;;;10.13;6.43;;;;;;;3.41;100.00;99136.53;4994981;28;20038;-64
2022/04/02 03:22:39;;;;;;;9.57;6.72;;;;;;;3.45;100.00;99125.91;4995230;28;20035;-64
2022/04/02 03:25:08;;;;;;;11.00;7.10;;;;;;;3.47;100.00;99124.13;4994534;28;20441;-64
2022/04/02 03:27:33;;;;;;;12.68;7.30;;;;;;;3.49;100.00;99132.84;4994674;28;20683;-64
2022/04/02 03:29:58;;;;;;;8.70;6.05;;;;;;;3.39;100.00;99114.66;4994583;28;20080;-64
2022/04/02 03:32:24;;;;;;;9.10;5.63;;;;;;;3.49;100.00;99127.59;4994904;28;20029;-64
2022/04/02 03:34:49;;;;;;;10.57;6.03;;;;;;;3.48;100.00;99130.25;4994113;28;20038;-64
2022/04/02 03:37:15;;;;;;;11.80;6.45;;;;;;;3.43;100.00;99137.34;4994581;28;20056;-64
2022/04/02 03:39:41;;;;;;;9.00;6.10;;;;;;;3.46;100.00;99132.91;4994737;28;20358;-64
2022/04/02 03:42:07;;;;;;;8.25;5.68;;;;;;;3.43;100.00;99142.59;4993365;28;20026;-64
2022/04/02 03:44:32;;;;;;;9.98;6.50;;;;;;;3.44;100.00;99145.19;4993581;28;20438;-64
2022/04/02 03:47:10;;;;;;;11.63;6.65;;;;;;;3.24;100.00;99131.56;4993346;28;20038;-64
2022/04/02 03:49:46;;;;;;;10.25;6.20;;;;;;;3.39;100.00;99146.19;4994132;28;20054;-64
2022/04/02 03:52:13;;;;;;;9.18;5.88;;;;;;;3.40;100.00;99145.28;4994314;28;20019;-64
2022/04/02 03:54:39;;;;;;;8.25;5.25;;;;;;;3.34;100.00;99155.91;4994265;28;20153;-64
2022/04/02 03:57:09;;;;;;;8.20;5.60;;;;;;;3.39;100.00;99146.19;4994076;28;20065;-64
2022/04/02 03:59:35;;;;;;;7.70;5.10;;;;;;;3.37;100.00;99159.38;4993748;28;20037;-64
2022/04/02 04:02:02;;;;;;;9.50;6.55;;;;;;;3.38;100.00;99149.69;4993379;28;20482;-64
2022/04/02 04:04:28;;;;;;;11.75;6.10;;;;;;;3.32;100.00;99155.06;4994279;28;20030;-64
2022/04/02 04:06:54;;;;;;;8.25;5.75;;;;;;;3.34;100.00;99166.44;4994011;28;20394;-64
2022/04/02 04:09:20;;;;;;;8.50;5.95;;;;;;;3.33;100.00;99162.06;4994005;28;20041;-64
2022/04/02 04:11:46;;;;;;;9.38;5.32;;;;;;;3.25;100.00;99171.81;4993869;28;20030;-64
2022/04/02 04:14:12;;;;;;;12.25;6.32;;;;;;;3.37;100.00;99169.88;4993891;28;20385;-64
2022/04/02 04:16:38;;;;;;;10.27;5.97;;;;;;;3.38;100.00;99168.09;4993511;28;20113;-64
2022/04/02 04:19:03;;;;;;;13.05;6.25;;;;;;;3.29;100.00;99177.03;4993444;28;20054;-64
2022/04/02 04:21:29;;;;;;;8.13;6.03;;;;;;;3.17;100.00;99177.22;4993775;28;20481;-64
2022/04/02 04:23:54;;;;;;;9.25;6.32;;;;;;;3.15;100.00;99163.25;4993980;28;20061;-64
2022/04/02 04:26:20;;;;;;;10.18;5.90;;;;;;;3.18;100.00;99175.47;4993113;28;20093;-64
2022/04/02 04:28:46;;;;;;;7.78;5.82;;;;;;;3.18;100.00;99185.97;4993749;28;20117;-64
2022/04/02 04:31:11;;;;;;;9.60;5.72;;;;;;;3.14;100.00;99177.28;4993121;28;20117;-64
2022/04/02 04:33:38;;;;;;;8.15;5.55;;;;;;;3.22;100.00;99192.91;4975014;28;20026;-64
2022/04/02 04:36:04;;;;;;;11.15;5.15;;;;;;;3.08;100.00;99187.03;4993205;28;20018;-63
2022/04/02 04:38:30;;;;;;;7.43;5.28;;;;;;;3.21;100.00;99193.81;4993539;28;20030;-63
2022/04/02 04:40:56;;;;;;;8.23;4.75;;;;;;;3.12;100.00;99199.19;4993095;28;20105;-63
2022/04/02 04:43:21;;;;;;;8.18;5.30;;;;;;;3.12;100.00;99207.06;4992701;28;20098;-63
2022/04/02 04:45:47;;;;;;;7.97;5.38;;;;;;;3.09;100.00;99201.88;4992793;28;20030;-64
2022/04/02 04:48:12;;;;;;;8.15;5.50;;;;;;;3.13;100.00;99211.47;4993647;28;20047;-64
2022/04/02 04:50:38;;;;;;;9.30;6.18;;;;;;;3.07;100.00;99216.78;4992818;28;20065;-64
2022/04/02 04:53:03;;;;;;;12.32;5.28;;;;;;;3.18;100.00;99214.88;4993238;28;20544;-64
2022/04/02 04:55:29;;;;;;;8.65;6.32;;;;;;;3.19;100.00;99204.34;4993000;28;20125;-64
2022/04/02 04:57:55;;;;;;;13.95;6.03;;;;;;;3.16;100.00;99200.91;4993161;28;20153;-64
2022/04/02 05:00:20;;;;;;;7.72;5.00;;;;;;;3.13;100.00;99221.97;4975161;28;20027;-63
2022/04/02 05:02:47;;;;;;;9.80;5.63;;;;;;;3.14;100.00;99221.06;4993125;28;20547;-63
2022/04/02 05:05:12;;;;;;;7.07;4.90;;;;;;;3.05;100.00;99222.06;4991381;28;20034;-63
2022/04/02 05:07:39;;;;;;;8.82;5.28;;;;;;;2.93;100.00;99214.41;4992620;28;20088;-63
2022/04/02 05:10:06;;;;;;;7.47;5.28;;;;;;;2.99;100.00;99226.56;4992707;28;20568;-63
2022/04/02 05:12:32;;;;;;;7.78;5.18;;;;;;;2.98;100.00;99230.97;4992939;28;20080;-63
2022/04/02 05:14:57;;;;;;;6.55;4.32;;;;;;;3.00;100.00;99230.94;4992281;28;20481;-63
2022/04/02 05:17:23;;;;;;;5.88;4.72;;;;;;;2.96;100.00;99234.47;4992798;28;20069;-63
2022/04/02 05:19:49;;;;;;;7.10;5.10;;;;;;;2.90;100.00;99229.34;4992636;28;20076;-63
2022/04/02 05:22:15;;;;;;;7.43;5.15;;;;;;;2.98;100.00;99237.97;4992590;28;20534;-63
2022/04/02 05:24:41;;;;;;;12.32;6.03;;;;;;;3.06;100.00;99236.09;4992305;28;20018;-63
2022/04/02 05:27:06;;;;;;;6.65;4.63;;;;;;;3.10;100.00;99249.13;4992396;28;20023;-63
2022/04/02 05:29:32;;;;;;;13.43;5.28;;;;;;;3.07;100.00;99258.81;4992618;28;20034;-63
2022/04/02 05:31:57;;;;;;;5.25;3.65;;;;;;;3.00;100.00;99251.94;4992445;28;20026;-63
2022/04/02 05:34:23;;;;;;;7.43;4.85;;;;;;;3.02;100.00;99260.66;4992301;28;20023;-63
2022/04/02 05:36:48;;;;;;;9.98;6.18;;;;;;;3.03;100.00;99263.25;4992366;28;20031;-63
2022/04/02 05:39:14;;;;;;;7.05;4.88;;;;;;;3.11;100.00;99261.41;4992777;28;20525;-64
2022/04/02 05:41:39;;;;;;;9.40;5.00;;;;;;;3.12;100.00;99257.00;4992284;28;20109;-64
2022/04/02 05:44:07;;;;;;;8.20;5.05;;;;;;;3.18;100.00;99262.19;4992593;28;20101;-64
2022/04/02 05:46:33;;;;;;;6.85;4.50;;;;;;;3.09;100.00;99273.69;4992228;28;20448;-63
2022/04/02 05:48:58;;;;;;;9.13;5.30;;;;;;;3.11;100.00;99277.16;4992280;28;20062;-64
2022/04/02 05:51:24;;;;;;;9.35;4.93;;;;;;;3.06;100.00;99272.84;4992285;28;20145;-64
2022/04/02 05:53:50;;;;;;;8.18;4.88;;;;;;;3.08;100.00;99276.34;4992405;28;20022;-63
2022/04/02 05:56:22;;;;;;;7.65;5.63;;;;;;;3.09;100.00;99288.56;4991827;28;20026;-64
2022/04/02 05:58:47;;;;;;;8.35;5.85;;;;;;;3.11;100.00;99290.31;4992518;28;20101;-64
2022/04/02 06:01:14;;;;;;;10.38;5.22;;;;;;;3.18;100.00;99283.19;4992191;28;20105;-64
2022/04/02 06:03:40;;;;;;;8.70;5.40;;;;;;;3.17;100.00;99291.94;4992230;28;20027;-64
2022/04/02 06:06:09;;;;;;;8.25;4.82;;;;;;;3.08;100.00;99292.09;4992040;28;20113;-64
2022/04/02 06:08:34;;;;;;;9.63;5.10;;;;;;;3.07;100.00;99292.97;4974360;28;20054;-64
2022/04/02 06:11:06;;;;;;;10.32;5.70;;;;;;;3.19;100.00;99296.31;4993582;28;20121;-64
2022/04/02 06:13:31;;;;;;;6.32;4.50;;;;;;;3.13;100.00;99301.63;4996270;28;20387;-64
2022/04/02 06:15:57;;;;;;;8.00;4.88;;;;;;;3.06;100.00;99307.00;4995868;28;20065;-64
2022/04/02 06:18:23;;;;;;;7.10;4.90;;;;;;;2.90;100.00;99298.47;4996109;28;20023;-64
2022/04/02 06:20:48;;;;;;;10.25;5.22;;;;;;;2.90;100.00;99308.97;4996138;28;20041;-64
2022/04/02 06:23:14;;;;;;;6.68;4.93;;;;;;;3.08;100.00;99313.13;4995761;28;20045;-64
2022/04/02 06:25:40;;;;;;;8.30;5.28;;;;;;;3.05;100.00;99315.78;4995330;28;20032;-64
2022/04/02 06:28:06;;;;;;;7.93;5.25;;;;;;;3.05;100.00;99316.63;4995714;28;20117;-64
2022/04/02 06:30:32;;;;;;;7.90;5.10;;;;;;;3.01;100.00;99328.09;4995931;28;20038;-64
2022/04/02 06:32:57;;;;;;;9.30;5.55;;;;;;;3.10;100.00;99332.34;4995664;28;20018;-64
2022/04/02 06:35:23;;;;;;;8.25;5.57;;;;;;;3.11;100.00;99328.84;4996011;28;20076;-64
2022/04/02 06:37:50;;;;;;;11.38;5.90;;;;;;;3.07;100.00;99338.50;4995733;28;20481;-64
2022/04/02 06:40:16;;;;;;;9.38;5.78;;;;;;;3.14;100.00;99339.28;4995527;28;20033;-63
2022/04/02 06:42:42;;;;;;;11.27;5.40;;;;;;;3.14;100.00;99347.16;4995143;28;20072;-64
2022/04/02 06:45:08;;;;;;;6.45;3.88;;;;;;;3.15;100.00;99346.28;4995430;28;20561;-64
2022/04/02 06:47:33;;;;;;;8.45;4.18;;;;;;;3.10;100.00;99350.75;4978043;28;20073;-64
2022/04/02 06:50:06;;;;;;;6.68;4.35;;;;;;;3.08;100.00;99342.00;4995050;28;20066;-64
2022/04/02 06:52:32;;;;;;;8.25;4.93;;;;;;;3.01;100.00;99353.47;4995491;28;20022;-64
2022/04/02 06:54:58;;;;;;;11.27;4.85;;;;;;;3.14;100.00;99357.69;4995363;28;20488;-64
2022/04/02 06:57:23;;;;;;;9.52;5.72;;;;;;;3.04;100.00;99348.19;4995407;28;20032;-64
2022/04/02 06:59:49;;;;;;;9.38;4.38;;;;;;;3.14;100.00;99361.19;4995405;28;20057;-64
2022/04/02 07:02:19;;;;;;;8.70;5.50;;;;;;;3.15;100.00;99362.03;4994841;28;20027;-64
2022/04/02 07:04:46;;;;;;;13.00;5.05;;;;;;;3.16;100.00;99376.94;4995278;28;20030;-64
2022/04/02 07:07:11;;;;;;;9.02;5.03;;;;;;;3.12;100.00;99372.59;4995159;28;20121;-64
2022/04/02 07:09:37;;;;;;;6.47;5.03;;;;;;;3.23;100.00;99378.59;4995325;28;20053;-64
2022/04/02 07:12:03;;;;;;;10.35;4.93;;;;;;;3.36;100.00;99380.16;4994449;28;20496;-64
2022/04/02 07:14:30;;;;;;;10.75;5.47;;;;;;;3.33;100.00;99388.94;4977569;28;20491;-64
2022/04/02 07:16:55;;;;;;;8.93;5.05;;;;;;;3.13;100.00;99369.94;4977115;28;20095;-64
2022/04/02 07:19:22;;;;;;;8.30;4.93;;;;;;;3.21;100.00;99389.13;4994686;28;20109;-64
2022/04/02 07:21:50;;;;;;;10.40;5.07;;;;;;;3.30;100.00;99394.25;4993633;28;20244;-64
2022/04/02 07:24:20;;;;;;;8.23;5.22;;;;;;;3.34;100.00;99400.34;4994692;28;20026;-64
2022/04/02 07:26:47;;;;;;;6.95;4.53;;;;;;;3.36;100.00;99406.44;4994687;28;20074;-64
2022/04/02 07:29:14;;;;;;;6.60;4.57;;;;;;;3.26;100.00;99410.09;4995132;28;20505;-65
2022/04/02 07:31:46;;;;;;;11.15;4.88;;;;;;;3.23;100.00;99412.75;4994031;28;20030;-64
2022/04/02 07:34:13;;;;;;;16.02;5.47;;;;;;;3.28;100.00;99426.69;4994278;28;20478;-64
2022/04/02 07:37:05;;;;;;;9.55;5.93;;;;;;;3.27;100.00;99420.56;4994520;28;20537;-64
2022/04/02 07:39:56;;;;;;;30.38;15.07;;;;;;;3.42;100.00;99430.00;4994715;28;20473;-64
2022/04/02 07:42:26;;;;;;;16.52;8.95;;;;;;;3.42;100.00;99422.13;4994414;28;20034;-64
2022/04/02 07:45:05;;;;;;;9.20;6.38;;;;;;;3.47;99.85;99431.69;4994624;28;20036;-64
2022/04/02 07:47:34;;;;;;;8.95;6.00;;;;;;;3.61;99.73;99439.38;4994466;28;20419;-64
2022/04/02 07:50:03;;;;;;;8.93;5.10;;;;;;;3.63;98.64;99438.47;4994125;28;20073;-64
2022/04/02 07:52:29;;;;;;;15.00;7.65;;;;;;;3.66;99.10;99445.44;4994139;28;20504;-64
2022/04/02 07:55:00;;;;;;;12.00;5.43;;;;;;;3.81;99.34;99445.22;4994503;28;20093;-64
2022/04/02 07:57:38;;;;;;;11.45;5.90;;;;;;;3.82;99.63;99449.59;4993976;28;20470;-64
2022/04/02 08:00:05;;;;;;;10.82;6.68;;;;;;;3.89;99.46;99443.31;4994121;28;20022;-64
2022/04/02 08:02:37;;;;;;;14.55;7.65;;;;;;;3.92;98.14;99459.94;4994322;28;20046;-64
2022/04/02 08:05:08;;;;;;;12.52;6.95;;;;;;;3.88;97.87;99465.28;4993947;28;20034;-64
2022/04/02 08:07:35;;;;;;;9.65;4.93;;;;;;;3.97;98.14;99457.22;4994217;28;20390;-64
2022/04/02 08:10:05;;;;;;;10.70;5.60;;;;;;;3.98;98.68;99467.75;4993642;28;20022;-64
2022/04/02 08:12:33;;;;;;;32.47;13.05;;;;;;;3.95;98.25;99465.16;4993830;28;20034;-64
2022/04/02 08:14:59;;;;;;;21.10;9.45;;;;;;;3.84;97.95;99466.19;4994002;28;20212;-64
2022/04/02 08:17:26;;;;;;;15.23;8.07;;;;;;;3.84;97.90;99480.22;4993803;28;20498;-64
2022/04/02 08:19:52;;;;;;;15.80;8.02;;;;;;;3.81;98.32;99477.66;4993589;28;20022;-64
2022/04/02 08:22:18;;;;;;;15.02;8.70;;;;;;;3.89;98.03;99488.06;4993247;28;20057;-64
2022/04/02 08:24:44;;;;;;;12.40;5.20;;;;;;;3.78;98.21;99479.44;4993768;28;20026;-64
2022/04/02 08:27:14;;;;;;;10.90;7.05;;;;;;;3.64;98.45;99484.91;4993758;28;20022;-64
2022/04/02 08:29:57;;;;;;;9.02;5.88;;;;;;;3.71;98.83;99490.94;4993500;28;20034;-64
2022/04/02 08:32:26;;;;;;;11.40;5.33;;;;;;;3.87;99.35;99497.75;4993664;28;20041;-64
2022/04/02 08:34:54;;;;;;;10.50;5.78;;;;;;;3.78;99.06;99495.22;4992779;28;20026;-64
2022/04/02 08:37:41;;;;;;;8.13;4.75;;;;;;;3.77;99.40;99502.25;4993565;28;20026;-64
2022/04/02 08:40:11;;;;;;;8.68;5.57;;;;;;;3.93;100.00;99505.53;4993102;28;20455;-64
2022/04/02 08:43:07;;;;;;;9.73;6.18;;;;;;;3.95;98.78;99507.25;4993353;28;20375;-64
2022/04/02 08:45:34;;;;;;;11.15;6.32;;;;;;;4.11;98.43;99510.53;4993366;28;20088;-64
2022/04/02 08:48:21;;;;;;;8.38;5.32;;;;;;;4.28;99.17;99519.06;4992660;28;20036;-64
2022/04/02 08:51:06;;;;;;;11.20;6.45;;;;;;;4.17;97.51;99528.00;4975395;28;20149;-64
2022/04/02 08:53:48;;;;;;;11.15;6.78;;;;;;;3.87;98.04;99510.91;4993237;28;20044;-64
2022/04/02 08:56:20;;;;;;;10.50;5.63;;;;;;;4.07;97.00;99533.38;4993147;28;20370;-64
2022/04/02 08:59:00;;;;;;;9.45;5.30;;;;;;;4.00;96.25;99529.09;4993244;28;20100;-64
2022/04/02 09:01:31;;;;;;;9.77;5.60;;;;;;;4.05;98.30;99539.59;4993233;28;20026;-64
2022/04/02 09:04:16;;;;;;;7.78;5.15;;;;;;;4.26;99.67;99544.53;4993123;28;20389;-64
2022/04/02 09:07:09;;;;;;;7.80;5.05;;;;;;;4.38;99.50;99552.25;4992894;28;20105;-64
2022/04/02 09:10:02;;;;;;;8.90;5.10;;;;;;;4.66;97.07;99556.16;4992195;28;20030;-64
2022/04/02 09:12:28;;;;;;;7.50;4.75;;;;;;;4.80;95.69;99554.19;4992583;28;20088;-64
2022/04/02 09:15:13;;;;;;;13.25;5.35;;;;;;;4.56;94.37;99559.88;4992686;28;20031;-64
2022/04/02 09:17:57;;;;;;;12.55;5.07;;;;;;;4.61;95.77;99552.72;4980092;28;20035;-64
2022/04/02 09:20:45;;;;;;;9.68;4.90;;;;;;;4.64;95.76;99565.00;4973279;28;20030;-64
2022/04/02 09:23:26;;;;;;;9.38;4.63;;;;;;;4.61;94.86;99563.25;4955737;28;20031;-64
2022/04/02 09:26:10;;;;;;;6.75;5.05;;;;;;;4.52;94.13;99563.41;4982258;28;20026;-64
2022/04/02 09:29:10;;;;;;;9.13;4.90;;;;;;;4.55;94.48;99567.75;4992471;28;20037;-64
2022/04/02 09:32:00;;;;;;;7.50;4.90;;;;;;;4.56;95.58;99574.78;4992592;28;20026;-64
2022/04/02 09:34:50;;;;;;;9.25;4.70;;;;;;;4.60;95.24;99576.47;4992275;28;20077;-64
2022/04/02 09:37:46;;;;;;;8.70;4.97;;;;;;;4.48;93.49;99572.25;4992258;28;20033;-64
2022/04/02 09:40:12;;;;;;;6.70;3.88;;;;;;;4.59;95.02;99580.88;4992413;28;20026;-64
2022/04/02 09:42:41;;;;;;;7.25;4.78;;;;;;;4.64;94.74;99584.31;4992637;28;20393;-64
2022/04/02 09:45:23;;;;;;;10.13;5.90;;;;;;;4.86;93.81;99580.41;4991680;28;20157;-64
2022/04/02 09:47:51;;;;;;;12.52;5.78;;;;;;;4.97;93.08;99582.88;4992486;28;20026;-64
2022/04/02 09:50:25;;;;;;;9.57;6.13;;;;;;;5.00;93.02;99588.97;4992097;28;20064;-64
2022/04/02 09:53:20;;;;;;;12.88;7.13;;;;;;;5.06;92.26;99591.50;4992536;28;20034;-64
2022/04/02 09:56:22;;;;;;;8.90;5.55;;;;;;;5.04;92.28;99595.91;4978259;28;20126;-64
2022/04/02 09:59:25;;;;;;;13.20;6.95;;;;;;;5.21;92.39;99592.97;4992312;28;20054;-64
2022/04/02 10:01:58;;;;;;;10.32;6.10;;;;;;;5.46;92.86;99593.41;4992245;28;20062;-64
2022/04/02 10:04:32;;;;;;;14.38;7.15;;;;;;;5.57;92.66;99592.28;4992162;28;20042;-64
2022/04/02 10:07:03;;;;;;;7.68;4.72;;;;;;;5.59;90.02;99590.50;4992082;28;20026;-64
2022/04/02 10:09:32;;;;;;;9.75;5.85;;;;;;;5.35;90.76;99594.47;4992324;28;20030;-65
2022/04/02 10:12:00;;;;;;;10.00;5.80;;;;;;;5.35;93.30;99591.81;4992201;28;20454;-64
2022/04/02 10:14:30;;;;;;;9.02;5.28;;;;;;;5.92;92.02;99587.22;4992175;28;20105;-64
2022/04/02 10:17:08;;;;;;;7.85;5.57;;;;;;;5.65;87.93;99594.81;4992060;28;20359;-64
2022/04/02 10:19:36;;;;;;;7.65;5.18;;;;;;;5.69;89.43;99604.38;4974182;28;20533;-64
2022/04/02 10:22:12;;;;;;;9.05;5.20;;;;;;;5.40;89.80;99560.97;4991704;28;20030;-64
2022/04/02 10:24:47;;;;;;;7.95;5.47;;;;;;;5.43;87.17;99609.28;4990429;28;20031;-64
2022/04/02 10:27:33;;;;;;;8.25;5.32;;;;;;;5.16;87.74;99611.53;4984280;28;20026;-64
2022/04/02 10:30:01;;;;;;;9.07;5.22;;;;;;;5.29;89.43;99610.41;4972695;28;20031;-64
2022/04/02 10:32:26;;;;;;;8.15;5.82;;;;;;;5.43;89.83;99614.56;4971351;28;20117;-64
2022/04/02 10:35:00;;;;;;;9.48;5.45;;;;;;;5.39;89.59;99619.88;4972054;28;20062;-64
2022/04/02 10:37:39;;;;;;;9.02;5.25;;;;;;;5.48;89.78;99617.97;4984358;28;20026;-64
2022/04/02 10:40:07;;;;;;;13.30;5.90;;;;;;;5.43;89.51;99618.06;4991693;28;20113;-64
2022/04/02 10:42:34;;;;;;;7.15;4.57;;;;;;;5.27;88.67;99617.47;4990390;28;20030;-64
2022/04/02 10:45:07;;;;;;;7.90;4.95;;;;;;;5.44;89.42;99621.59;4991267;28;20485;-64
2022/04/02 10:47:41;;;;;;;11.10;6.32;;;;;;;5.46;89.92;99625.03;4992224;28;20036;-64
2022/04/02 10:50:08;;;;;;;10.65;5.80;;;;;;;5.34;89.00;99611.19;4973409;28;20387;-65
2022/04/02 10:52:34;;;;;;;10.70;5.90;;;;;;;5.20;89.69;99623.75;4990112;28;20037;-64
2022/04/02 10:55:01;;;;;;;10.50;5.38;;;;;;;5.18;90.93;99622.03;4989443;28;20203;-64
2022/04/02 10:57:32;;;;;;;8.10;5.22;;;;;;;5.04;89.59;99632.81;4993023;28;20636;-65
2022/04/02 11:00:10;;;;;;;7.60;4.75;;;;;;;5.24;91.35;99628.06;4994582;28;20026;-65
2022/04/02 11:02:43;;;;;;;8.48;4.97;;;;;;;5.31;91.77;99634.97;4980257;28;20481;-65
2022/04/02 11:05:11;;;;;;;7.43;4.80;;;;;;;5.56;92.35;99637.16;4978244;28;20031;-65
2022/04/02 11:07:44;;;;;;;8.32;4.75;;;;;;;5.43;89.28;99635.66;4993185;28;20038;-65
2022/04/02 11:10:17;;;;;;;14.10;4.30;;;;;;;5.76;92.00;99632.38;4992989;28;20238;-65
2022/04/02 11:12:44;;;;;;;6.78;4.32;;;;;;;5.80;90.75;99639.34;4992765;28;20034;-65
2022/04/02 11:15:23;;;;;;;11.15;5.72;;;;;;;5.53;89.37;99647.78;4991892;28;20696;-65
2022/04/02 11:17:52;;;;;;;15.32;5.18;;;;;;;5.43;89.42;99654.13;4986120;28;20034;-65
2022/04/02 11:20:23;;;;;;;10.07;4.32;;;;;;;5.17;90.97;99641.41;4992607;28;20060;-65
2022/04/02 11:22:51;;;;;;;7.97;4.68;;;;;;;5.23;90.38;99655.34;4991826;28;20026;-65
2022/04/02 11:25:29;;;;;;;12.10;5.90;;;;;;;5.16;89.69;99648.44;4992915;28;20501;-65
2022/04/02 11:27:59;;;;;;;4.93;3.25;;;;;;;5.04;89.62;99659.16;4992307;28;20022;-65
2022/04/02 11:30:30;;;;;;;5.65;4.22;;;;;;;5.09;90.94;99670.50;4984340;28;20026;-64
2022/04/02 11:33:09;;;;;;;8.70;4.57;;;;;;;5.04;90.35;99660.94;4984023;28;20081;-65
2022/04/02 11:35:43;;;;;;;7.25;4.00;;;;;;;5.14;91.07;99670.44;4988270;28;20497;-64
2022/04/02 11:38:17;;;;;;;7.38;4.53;;;;;;;5.39;91.36;99667.34;4991117;28;20037;-64
2022/04/02 11:40:49;;;;;;;7.65;4.28;;;;;;;5.38;88.82;99665.63;4989677;28;20053;-65
2022/04/02 11:43:17;;;;;;;7.43;4.47;;;;;;;5.38;88.96;99670.91;4990499;28;20113;-65
2022/04/02 11:45:46;;;;;;;6.57;4.15;;;;;;;5.26;88.94;99681.66;4972649;28;20030;-64
2022/04/02 11:48:14;;;;;;;6.05;4.80;;;;;;;5.28;89.60;99679.88;4990292;28;20034;-65